Time;durP1;ratioP1;P1;durP2;ratioP2;P2;SDS_P1;SDS_P2;PMS_P1;PMS_P2;Temp;Humidity;BMP_temperature;BMP_pressure;BME280_temperature;BME280_humidity;BME280_pressure;Samples;Min_cycle;Max_cycle;Signal;HPM_P1;HPM_P2
2022/04/16 00:00:11;;;;;;;4.70;4.30;;;;;;;21.69;28.04;94988.75;6187447;28;103741;-57
2022/04/16 00:03:13;;;;;;;4.60;4.20;;;;;;;21.68;28.15;94981.88;6184548;28;104224;-56
2022/04/16 00:06:15;;;;;;;4.57;4.20;;;;;;;21.67;28.19;94992.78;6165762;28;104228;-56
2022/04/16 00:09:17;;;;;;;5.33;4.40;;;;;;;21.66;28.36;94994.66;6164683;28;103166;-57
2022/04/16 00:12:19;;;;;;;4.57;4.17;;;;;;;21.64;28.18;94998.72;6161423;28;102952;-57
2022/04/16 00:15:21;;;;;;;6.70;4.83;;;;;;;21.64;28.20;94990.75;6162225;28;104151;-57
2022/04/16 00:18:23;;;;;;;4.70;4.30;;;;;;;21.69;28.23;94977.31;6173336;28;104023;-57
2022/04/16 00:21:25;;;;;;;8.60;4.67;;;;;;;21.71;28.02;94985.78;6187262;28;102765;-57
2022/04/16 00:24:28;;;;;;;5.33;4.60;;;;;;;21.68;28.21;94989.06;6163272;28;103301;-56
2022/04/16 00:27:29;;;;;;;5.80;4.53;;;;;;;21.68;28.15;94991.72;6158491;28;102964;-56
2022/04/16 00:30:37;;;;;;;4.70;4.30;;;;;;;21.67;28.43;94984.81;6160435;28;103102;-57
2022/04/16 00:33:39;;;;;;;4.10;3.80;;;;;;;21.60;28.00;94982.56;6173475;28;104272;-56
2022/04/16 00:36:44;;;;;;;5.07;4.33;;;;;;;21.47;28.03;94983.41;6161804;28;103232;-56
2022/04/16 00:39:46;;;;;;;4.73;4.27;;;;;;;21.50;28.13;94986.25;6162869;28;104210;-56
2022/04/16 00:42:49;;;;;;;5.40;4.83;;;;;;;21.52;28.05;94991.31;6172182;28;103272;-57
2022/04/16 00:45:54;;;;;;;4.70;4.30;;;;;;;21.54;28.28;94988.34;6161945;28;104215;-57
2022/04/16 00:48:56;;;;;;;4.63;4.17;;;;;;;21.60;28.23;94979.91;6161298;28;103052;-55
2022/04/16 00:52:00;;;;;;;4.37;4.00;;;;;;;21.55;28.26;94976.59;6152024;28;103325;-57
2022/04/16 00:55:04;;;;;;;4.40;4.10;;;;;;;21.60;28.09;94971.13;6161362;28;103421;-58
2022/04/16 00:58:06;;;;;;;5.13;4.73;;;;;;;21.61;28.12;94965.50;6182123;28;104169;-57
2022/04/16 01:01:09;;;;;;;4.57;4.20;;;;;;;21.61;27.90;94972.72;6186656;28;103016;-57
2022/04/16 01:04:11;;;;;;;4.30;3.90;;;;;;;21.56;28.05;94964.84;6175673;28;104061;-57
2022/04/16 01:07:12;;;;;;;5.17;4.77;;;;;;;21.50;28.05;94961.50;6186017;28;103309;-57
2022/04/16 01:10:14;;;;;;;5.73;5.13;;;;;;;21.34;27.87;94962.97;6178708;28;103559;-56
2022/04/16 01:13:18;;;;;;;5.20;4.70;;;;;;;21.22;27.80;94960.88;6161720;28;103022;-58
2022/04/16 01:16:20;;;;;;;6.60;5.07;;;;;;;21.03;28.34;94965.53;6180519;28;103077;-57
2022/04/16 01:19:25;;;;;;;5.43;4.77;;;;;;;21.01;28.43;94963.19;6185776;28;103981;-57
2022/04/16 01:22:29;;;;;;;6.07;5.53;;;;;;;21.00;28.69;94961.56;6201006;28;105717;-57
2022/04/16 01:25:35;;;;;;;5.43;4.93;;;;;;;20.93;28.60;94969.97;6158781;28;103887;-56
2022/04/16 01:28:37;;;;;;;5.77;5.27;;;;;;;20.98;28.70;94968.28;6161509;28;104003;-51
2022/04/16 01:31:39;;;;;;;6.27;5.67;;;;;;;21.09;28.59;94969.69;6175724;28;102926;-52
2022/04/16 01:34:40;;;;;;;5.13;4.63;;;;;;;21.13;28.49;94960.00;6167094;28;103929;-51
2022/04/16 01:37:43;;;;;;;6.30;5.17;;;;;;;21.13;28.61;94962.66;6152996;28;104066;-57
2022/04/16 01:40:45;;;;;;;7.43;4.90;;;;;;;21.16;28.42;94970.03;6160940;28;103067;-57
2022/04/16 01:43:46;;;;;;;5.80;5.13;;;;;;;21.18;28.33;94973.22;6160287;28;103965;-56
2022/04/16 01:46:48;;;;;;;5.67;5.10;;;;;;;21.16;28.76;94980.69;6162764;28;104073;-57
2022/04/16 01:49:51;;;;;;;6.10;5.60;;;;;;;21.12;28.62;94980.50;6175464;28;104255;-57
2022/04/16 01:52:53;;;;;;;5.73;5.20;;;;;;;21.12;28.53;94977.84;6175316;28;104301;-57
2022/04/16 01:55:55;;;;;;;6.83;5.20;;;;;;;21.08;28.56;94976.09;6161531;28;104038;-57
2022/04/16 01:58:56;;;;;;;5.97;5.47;;;;;;;21.06;28.74;94978.25;6154083;28;103056;-53
2022/04/16 02:01:58;;;;;;;6.63;5.53;;;;;;;21.07;28.75;94969.97;6172080;28;104207;-57
2022/04/16 02:05:01;;;;;;;6.50;5.57;;;;;;;21.08;28.35;94974.22;6173422;28;102852;-57
2022/04/16 02:08:03;;;;;;;6.57;5.90;;;;;;;21.03;28.57;94966.31;6169796;28;104149;-57
2022/04/16 02:11:05;;;;;;;5.97;5.37;;;;;;;21.05;28.56;94972.16;6160075;28;103553;-57
2022/04/16 02:14:06;;;;;;;6.67;5.97;;;;;;;21.06;28.64;94976.38;6159139;28;103181;-57
2022/04/16 02:17:08;;;;;;;7.33;6.03;;;;;;;20.97;28.83;94974.69;6160316;28;104189;-57
2022/04/16 02:20:11;;;;;;;5.80;5.20;;;;;;;21.07;28.42;94977.19;6160955;28;103749;-57
2022/04/16 02:23:12;;;;;;;6.23;5.60;;;;;;;21.09;28.26;94969.69;6171308;28;103563;-56
2022/04/16 02:26:14;;;;;;;6.17;5.60;;;;;;;21.15;28.51;94971.13;6184389;28;102918;-57
2022/04/16 02:29:16;;;;;;;6.03;5.43;;;;;;;21.19;28.55;94972.13;6182401;28;104293;-57
2022/04/16 02:32:18;;;;;;;6.40;5.80;;;;;;;21.16;28.41;94967.38;6175980;28;104190;-56
2022/04/16 02:35:21;;;;;;;5.87;5.27;;;;;;;21.24;28.69;94966.66;6179688;28;104015;-57
2022/04/16 02:38:23;;;;;;;5.23;4.73;;;;;;;21.28;28.72;94975.63;6171173;28;104084;-56
2022/04/16 02:41:26;;;;;;;6.37;5.40;;;;;;;21.25;28.69;94962.91;6176995;28;103176;-57
2022/04/16 02:47:48;;;;;;;5.90;5.40;;;;;;;21.24;28.87;94971.22;6163681;28;102959;-56
2022/04/16 02:50:53;;;;;;;5.70;5.23;;;;;;;21.20;28.89;94971.03;6170327;28;103228;-57
2022/04/16 02:53:54;;;;;;;5.80;5.20;;;;;;;21.24;28.90;94977.31;6172861;28;103977;-57
2022/04/16 02:56:56;;;;;;;7.37;5.90;;;;;;;21.24;28.84;94972.00;6154289;28;103912;-52
2022/04/16 02:59:58;;;;;;;5.30;4.80;;;;;;;21.25;28.69;94978.88;6188606;28;104140;-55
2022/04/16 03:03:05;;;;;;;5.10;4.60;;;;;;;21.27;28.43;94982.03;6187851;28;103048;-54
2022/04/16 03:06:08;;;;;;;5.30;4.80;;;;;;;21.26;28.83;94977.78;6188975;28;103327;-56
2022/04/16 03:09:09;;;;;;;6.20;5.60;;;;;;;21.27;28.68;94986.56;6176317;28;103031;-56
2022/04/16 03:12:11;;;;;;;5.70;5.10;;;;;;;21.27;28.63;94986.56;6169139;28;104386;-55
2022/04/16 03:18:35;;;;;;;5.63;5.13;;;;;;;21.23;28.78;94985.59;6177339;28;104326;-56
2022/04/16 03:21:36;;;;;;;6.17;5.67;;;;;;;21.23;29.01;94981.06;6187171;28;103680;-52
2022/04/16 03:24:38;;;;;;;6.20;5.60;;;;;;;21.25;28.87;94984.22;6187096;28;104158;-55
2022/04/16 03:27:40;;;;;;;6.30;5.67;;;;;;;21.25;28.57;94983.41;6187515;28;103067;-56
2022/04/16 03:30:42;;;;;;;6.07;5.53;;;;;;;21.24;28.52;94985.28;6166608;28;104104;-56
2022/04/16 03:33:43;;;;;;;5.17;4.67;;;;;;;21.25;28.45;94986.88;6187775;28;102731;-55
2022/04/16 03:36:45;;;;;;;4.90;4.50;;;;;;;21.22;28.35;94995.47;6188058;28;103149;-55
2022/04/16 03:39:47;;;;;;;5.67;4.50;;;;;;;21.20;28.49;95001.09;6184216;28;103020;-56
2022/04/16 03:42:52;;;;;;;5.00;4.60;;;;;;;21.22;28.30;95000.78;6173018;28;103273;-55
2022/04/16 03:45:53;;;;;;;5.50;5.00;;;;;;;21.27;28.36;95007.84;6196670;28;104444;-56
2022/04/16 03:48:55;;;;;;;5.80;4.63;;;;;;;21.23;28.62;95014.88;6174092;28;104053;-56
2022/04/16 03:51:57;;;;;;;5.13;4.73;;;;;;;21.07;28.43;95009.88;6175523;28;103258;-54
2022/04/16 04:01:40;;;;;;;5.60;5.07;;;;;;;20.89;28.13;95032.84;6162549;28;103457;-57
2022/04/16 04:04:43;;;;;;;6.23;5.40;;;;;;;20.85;28.25;95033.75;6170352;28;104095;-56
2022/04/16 04:07:45;;;;;;;6.60;6.00;;;;;;;20.80;27.82;95036.50;6178353;28;103109;-57
2022/04/16 04:10:47;;;;;;;8.07;7.27;;;;;;;20.77;28.25;95039.75;6161913;28;103015;-55
2022/04/16 04:13:49;;;;;;;9.57;7.97;;;;;;;20.75;28.09;95042.72;6162026;28;103222;-55
2022/04/16 04:16:50;;;;;;;8.80;7.23;;;;;;;20.77;28.23;95031.78;6150875;28;103913;-56
2022/04/16 04:19:52;;;;;;;8.00;7.20;;;;;;;20.76;28.35;95040.84;6164728;28;103538;-56
2022/04/16 04:22:54;;;;;;;8.33;6.67;;;;;;;20.75;28.47;95039.25;6184513;28;103922;-55
2022/04/16 04:25:56;;;;;;;7.83;6.20;;;;;;;20.71;28.09;95043.59;6181967;28;103660;-53
2022/04/16 04:28:58;;;;;;;6.30;5.73;;;;;;;20.97;29.99;95046.53;6178682;28;104180;-56
2022/04/16 04:32:00;;;;;;;6.63;5.83;;;;;;;21.09;31.28;95034.31;6170846;28;103945;-56
2022/04/16 04:35:06;;;;;;;6.10;5.50;;;;;;;21.17;31.86;95041.59;6187073;28;102972;-54
2022/04/16 04:38:10;;;;;;;6.50;5.57;;;;;;;21.24;31.42;95040.41;6162791;28;103161;-56
2022/04/16 04:41:12;;;;;;;6.37;5.67;;;;;;;21.23;31.51;95047.59;6167662;28;103168;-56
2022/04/16 04:44:14;;;;;;;9.07;6.23;;;;;;;21.32;32.34;95055.63;6201052;28;104165;-56
2022/04/16 04:47:16;;;;;;;6.90;5.60;;;;;;;21.33;31.71;95055.34;6199231;28;103015;-56
2022/04/16 04:50:18;;;;;;;5.93;5.23;;;;;;;21.34;30.33;95059.59;6169908;28;102911;-56
2022/04/16 04:53:19;;;;;;;7.33;5.30;;;;;;;21.30;30.32;95055.94;6171401;28;104076;-56
2022/04/16 04:56:21;;;;;;;7.37;5.00;;;;;;;21.30;30.32;95061.25;6180255;28;102961;-56
2022/04/16 04:59:23;;;;;;;6.93;5.10;;;;;;;21.30;30.21;95077.22;6184617;28;103741;-56
2022/04/16 05:02:24;;;;;;;8.50;5.70;;;;;;;21.34;30.06;95067.59;6164287;28;104175;-56
2022/04/16 05:05:26;;;;;;;7.30;5.67;;;;;;;21.31;30.13;95073.50;6160605;28;103002;-56
2022/04/16 05:08:28;;;;;;;11.93;5.87;;;;;;;21.12;29.47;95064.84;6189582;28;104170;-56
2022/04/16 05:11:30;;;;;;;10.20;8.40;;;;;;;20.54;30.40;95049.53;6171877;28;103254;-56
2022/04/16 05:14:32;;;;;;;21.23;9.17;;;;;;;20.59;30.32;95060.84;6170004;28;103442;-56
2022/04/16 05:17:37;;;;;;;9.37;7.97;;;;;;;20.90;29.72;95054.91;6172366;28;103148;-57
2022/04/16 05:20:39;;;;;;;11.80;9.40;;;;;;;21.05;29.93;95053.84;6163855;28;103948;-56
2022/04/16 05:23:41;;;;;;;20.87;10.93;;;;;;;21.02;29.91;95054.41;6151168;28;104435;-57
2022/04/16 05:26:43;;;;;;;14.23;10.73;;;;;;;21.07;30.17;95046.34;6170232;28;102920;-57
2022/04/16 05:30:04;;;;;;;14.03;10.20;;;;;;;21.13;29.73;95051.25;6167638;28;103066;-57
2022/04/16 05:33:16;;;;;;;11.47;10.33;;;;;;;21.13;30.24;95048.59;6167313;28;104212;-57
2022/04/16 05:36:18;;;;;;;15.40;12.00;;;;;;;21.18;29.79;95045.06;6173991;28;104241;-57
2022/04/16 05:39:19;;;;;;;12.53;9.87;;;;;;;21.17;29.63;95057.56;6199127;28;103318;-57
2022/04/16 05:42:21;;;;;;;10.73;9.60;;;;;;;21.18;30.27;95058.34;6165988;28;102810;-57
2022/04/16 05:45:23;;;;;;;12.13;9.93;;;;;;;21.28;30.53;95050.13;6174254;28;104143;-57
2022/04/16 05:48:25;;;;;;;11.13;8.87;;;;;;;21.22;30.64;95043.38;6154875;28;103790;-58
2022/04/16 05:51:27;;;;;;;11.13;7.97;;;;;;;21.37;30.40;95044.91;6160691;28;103180;-59
2022/04/16 05:54:29;;;;;;;14.67;8.90;;;;;;;21.46;30.81;95045.75;6160974;28;103051;-58
2022/04/16 05:57:31;;;;;;;14.53;8.30;;;;;;;21.56;33.43;95042.06;6154059;28;105075;-59
2022/04/16 06:00:33;;;;;;;10.17;8.47;;;;;;;21.70;33.05;95042.81;6174005;28;103542;-59
2022/04/16 06:03:36;;;;;;;8.73;7.93;;;;;;;21.81;32.14;95039.56;6185822;28;103264;-57
2022/04/16 06:06:38;;;;;;;14.37;8.73;;;;;;;21.89;32.19;95051.44;6179937;28;103022;-58
2022/04/16 06:09:40;;;;;;;9.77;8.20;;;;;;;21.99;32.23;95040.50;6187307;28;103894;-58
2022/04/16 06:12:42;;;;;;;11.83;7.83;;;;;;;21.99;31.50;95043.16;6193813;28;104033;-58
2022/04/16 06:15:43;;;;;;;15.20;8.03;;;;;;;22.09;32.39;95040.25;6173653;28;103243;-59
2022/04/16 06:18:45;;;;;;;13.97;8.60;;;;;;;22.19;32.43;95038.44;6179998;28;103381;-58
2022/04/16 06:21:47;;;;;;;15.57;8.30;;;;;;;22.23;31.74;95032.19;6175746;28;105041;-59
2022/04/16 06:24:49;;;;;;;15.23;7.70;;;;;;;22.27;31.18;95038.47;6183020;28;104399;-59
2022/04/16 06:27:51;;;;;;;9.20;8.33;;;;;;;22.30;31.44;95043.19;6184752;28;103085;-58
2022/04/16 06:30:53;;;;;;;10.47;7.90;;;;;;;22.36;31.35;95038.53;6185909;28;104163;-56
2022/04/16 06:33:54;;;;;;;9.63;6.93;;;;;;;22.39;30.75;95028.03;6179184;28;104517;-59
2022/04/16 06:36:56;;;;;;;10.83;7.37;;;;;;;22.40;30.80;95024.25;6175664;28;103312;-57
2022/04/16 06:39:58;;;;;;;9.43;7.93;;;;;;;22.51;30.83;95018.63;6184336;28;103594;-58
2022/04/16 06:43:00;;;;;;;9.07;8.00;;;;;;;22.52;31.06;95021.00;6167366;28;103969;-58
2022/04/16 06:46:03;;;;;;;11.30;7.90;;;;;;;22.52;30.90;95020.22;6161974;28;103090;-59
2022/04/16 06:49:04;;;;;;;13.03;7.53;;;;;;;22.48;31.03;95020.03;6163776;28;104148;-59
2022/04/16 06:52:06;;;;;;;9.57;8.43;;;;;;;22.49;30.79;95015.50;6163319;28;104852;-59
2022/04/16 06:55:08;;;;;;;9.53;8.53;;;;;;;22.51;30.56;95013.28;6151878;28;105079;-59
2022/04/16 06:58:10;;;;;;;10.57;9.20;;;;;;;22.52;31.04;95010.34;6161661;28;103160;-59
2022/04/16 07:01:12;;;;;;;10.53;9.63;;;;;;;22.56;30.59;95005.97;6162165;28;103157;-58
2022/04/16 07:04:14;;;;;;;10.90;9.70;;;;;;;22.57;30.74;95002.22;6161728;28;103987;-59
2022/04/16 07:07:16;;;;;;;10.50;9.50;;;;;;;22.60;30.77;95000.81;6152575;28;103146;-59
2022/04/16 07:10:18;;;;;;;10.87;9.87;;;;;;;22.63;30.78;95008.97;6163886;28;103137;-59
2022/04/16 07:13:20;;;;;;;10.33;9.33;;;;;;;22.65;30.31;95001.44;6163128;28;102942;-59
2022/04/16 07:16:22;;;;;;;12.60;9.73;;;;;;;22.68;30.34;95003.53;6161009;28;103026;-58
2022/04/16 07:19:23;;;;;;;9.90;8.93;;;;;;;22.70;30.80;95003.22;6156141;28;103725;-58
2022/04/16 07:22:25;;;;;;;12.37;10.23;;;;;;;22.74;30.62;94996.16;6178272;28;102690;-59
2022/04/16 07:25:27;;;;;;;11.80;10.60;;;;;;;22.79;30.55;95000.56;6163900;28;104110;-59
2022/04/16 07:28:29;;;;;;;12.60;11.40;;;;;;;22.79;30.51;94998.66;6152665;28;103583;-59
2022/04/16 07:31:30;;;;;;;12.80;11.50;;;;;;;22.85;30.67;94996.63;6176388;28;102961;-60
2022/04/16 07:34:32;;;;;;;12.33;11.13;;;;;;;22.84;29.99;94995.84;6187852;28;103538;-59
2022/04/16 07:37:34;;;;;;;14.13;12.90;;;;;;;22.84;30.50;94993.19;6187532;28;103203;-58
2022/04/16 07:40:36;;;;;;;14.50;13.10;;;;;;;22.84;30.45;94990.50;6177171;28;102696;-59
2022/04/16 07:43:37;;;;;;;15.03;13.23;;;;;;;22.86;30.46;94992.88;6187732;28;103244;-59
2022/04/16 07:46:39;;;;;;;15.53;14.13;;;;;;;22.84;30.57;94985.16;6188070;28;103175;-58
2022/04/16 07:49:41;;;;;;;14.20;12.90;;;;;;;22.85;30.39;94980.63;6187385;28;104403;-59
2022/04/16 07:52:44;;;;;;;14.97;13.53;;;;;;;22.85;30.42;94976.09;6177357;28;104225;-59
2022/04/16 07:55:48;;;;;;;15.77;14.17;;;;;;;22.86;30.27;94971.53;6187725;28;103230;-59
2022/04/16 07:58:50;;;;;;;15.13;13.70;;;;;;;22.84;30.04;94974.50;6187646;28;102975;-59
2022/04/16 08:01:52;;;;;;;14.43;13.23;;;;;;;22.83;30.05;94974.81;6183321;28;104019;-59
2022/04/16 08:04:54;;;;;;;14.37;13.07;;;;;;;22.81;30.13;94969.78;6181702;28;103189;-59
2022/04/16 08:07:55;;;;;;;16.90;15.30;;;;;;;22.81;29.95;94974.34;6187324;28;102923;-59
2022/04/16 08:10:57;;;;;;;15.50;14.20;;;;;;;22.83;30.08;94974.81;6187210;28;103075;-59
2022/04/16 08:14:00;;;;;;;16.40;15.00;;;;;;;22.82;30.31;94973.25;6176349;28;103096;-59
2022/04/16 08:17:02;;;;;;;17.63;16.07;;;;;;;22.82;30.40;94970.56;6187303;28;104256;-59
2022/04/16 08:20:07;;;;;;;17.03;15.63;;;;;;;22.81;30.35;94969.78;6186496;28;103750;-59
2022/04/16 08:23:09;;;;;;;17.57;15.83;;;;;;;22.80;30.38;94967.44;6187304;28;103130;-60
2022/04/16 08:26:11;;;;;;;18.07;16.53;;;;;;;22.80;30.60;94962.09;6176366;28;104176;-59
2022/04/16 08:29:13;;;;;;;19.10;17.60;;;;;;;22.78;30.68;94965.09;6187062;28;103053;-58
2022/04/16 08:32:15;;;;;;;19.83;18.13;;;;;;;22.77;30.42;94968.06;6186610;28;103021;-58
2022/04/16 08:35:25;;;;;;;19.83;18.20;;;;;;;22.82;30.68;94959.91;6186604;28;103968;-56
2022/04/16 08:38:27;;;;;;;19.60;17.90;;;;;;;22.85;30.73;94960.09;6177454;28;104348;-56
2022/04/16 08:41:30;;;;;;;18.20;16.57;;;;;;;22.88;30.37;94959.47;6186525;28;103165;-58
2022/04/16 08:44:33;;;;;;;18.80;17.10;;;;;;;22.91;30.06;94963.38;6186538;28;103131;-56
2022/04/16 08:47:38;;;;;;;18.20;16.70;;;;;;;22.93;30.04;94950.50;6181902;28;103564;-55
2022/04/16 08:50:40;;;;;;;17.90;16.50;;;;;;;22.95;30.35;94953.66;6180531;28;104002;-56
2022/04/16 08:53:42;;;;;;;17.50;16.10;;;;;;;22.96;30.42;94955.22;6186453;28;103996;-56
2022/04/16 08:56:43;;;;;;;17.67;16.17;;;;;;;22.97;30.30;94946.09;6186242;28;103037;-56
2022/04/16 08:59:50;;;;;;;18.40;16.80;;;;;;;22.96;29.91;94939.19;6176300;28;103585;-56
2022/04/16 09:02:58;;;;;;;18.10;16.60;;;;;;;22.96;29.75;94937.31;6186727;28;103133;-56
2022/04/16 09:06:00;;;;;;;17.30;15.80;;;;;;;22.97;30.19;94946.09;6185715;28;103062;-56
2022/04/16 09:09:12;;;;;;;16.50;15.10;;;;;;;22.98;29.57;94932.44;6185186;28;104101;-56
2022/04/16 09:12:20;;;;;;;16.57;15.10;;;;;;;22.96;29.84;94923.97;6174924;28;104969;-56
2022/04/16 09:15:24;;;;;;;16.60;15.20;;;;;;;22.97;29.73;94928.22;6186145;28;104544;-56
2022/04/16 09:18:25;;;;;;;17.60;16.10;;;;;;;22.98;30.15;94926.31;6185813;28;102963;-56
2022/04/16 09:21:28;;;;;;;17.30;15.80;;;;;;;22.99;29.89;94922.56;6196109;28;103875;-55
2022/04/16 09:24:47;;;;;;;16.57;15.10;;;;;;;22.98;29.73;94910.31;6179780;28;103841;-56
2022/04/16 09:27:50;;;;;;;15.77;14.47;;;;;;;22.97;29.46;94903.41;6185532;28;104149;-55
2022/04/16 09:30:54;;;;;;;15.30;14.10;;;;;;;22.98;29.91;94904.97;6186393;28;103285;-56
2022/04/16 09:33:56;;;;;;;15.10;13.93;;;;;;;22.99;30.03;94901.22;6174904;28;104413;-53
2022/04/16 09:37:11;;;;;;;16.80;15.30;;;;;;;22.99;29.99;94898.53;6185810;28;103224;-56
2022/04/16 09:40:13;;;;;;;16.20;14.80;;;;;;;22.97;29.93;94895.41;6185399;28;103200;-56
2022/04/16 09:43:15;;;;;;;16.93;15.43;;;;;;;22.97;29.91;94892.72;6186169;28;104076;-56
2022/04/16 09:46:18;;;;;;;16.23;14.90;;;;;;;22.96;30.07;94896.50;6174773;28;103995;-56
2022/04/16 09:49:21;;;;;;;16.20;14.80;;;;;;;22.92;29.46;94899.03;6185510;28;103101;-56
2022/04/16 09:52:24;;;;;;;15.70;14.30;;;;;;;22.93;29.54;94886.47;6184241;28;103051;-56
2022/04/16 09:55:27;;;;;;;19.43;17.83;;;;;;;22.94;29.78;94898.69;6181066;28;104111;-58
2022/04/16 09:58:36;;;;;;;29.57;27.17;;;;;;;22.93;30.22;94897.91;6179615;28;104019;-57
2022/04/16 10:01:38;;;;;;;30.90;28.30;;;;;;;22.93;29.79;94892.59;6185331;28;103052;-57
2022/04/16 10:04:41;;;;;;;31.83;29.17;;;;;;;22.91;30.41;94888.66;6184654;28;103024;-56
2022/04/16 10:07:44;;;;;;;32.97;30.10;;;;;;;22.89;30.26;94891.66;6175345;28;103161;-57
2022/04/16 10:10:54;;;;;;;33.20;30.30;;;;;;;22.90;29.74;94897.78;6184793;28;103065;-57
2022/04/16 10:14:09;;;;;;;35.13;32.10;;;;;;;22.91;30.27;94886.00;6185184;28;103348;-57
2022/04/16 10:17:14;;;;;;;35.93;32.93;;;;;;;22.89;29.71;94877.53;6185059;28;103154;-57
2022/04/16 10:20:18;;;;;;;37.57;34.37;;;;;;;22.89;30.36;94874.84;6174610;28;104107;-57
2022/04/16 10:23:32;;;;;;;38.90;35.53;;;;;;;22.88;29.92;94878.63;6184456;28;102980;-57
2022/04/16 10:26:38;;;;;;;40.10;36.70;;;;;;;22.89;29.91;94874.84;6184703;28;104794;-57
2022/04/16 10:29:47;;;;;;;39.43;36.03;;;;;;;22.88;29.89;94867.94;6181086;28;104226;-57
2022/04/16 10:32:48;;;;;;;43.77;40.20;;;;;;;22.89;30.28;94864.19;6193562;28;103173;-61
2022/04/16 10:35:51;;;;;;;43.27;39.60;;;;;;;22.88;30.35;94857.28;6185096;28;106158;-57
2022/04/16 10:38:53;;;;;;;43.67;39.97;;;;;;;22.87;29.88;94853.81;6183775;28;103129;-57
2022/04/16 10:42:05;;;;;;;45.67;41.77;;;;;;;22.89;30.34;94853.50;6173276;28;104157;-57
2022/04/16 10:45:11;;;;;;;45.93;42.13;;;;;;;22.88;29.89;94851.94;6183477;28;104043;-57
2022/04/16 10:48:14;;;;;;;46.77;42.83;;;;;;;22.86;29.88;94857.59;6184497;28;104162;-57
2022/04/16 10:51:21;;;;;;;47.60;43.53;;;;;;;22.87;30.24;94855.72;6185178;28;103069;-57
2022/04/16 10:54:37;;;;;;;49.10;44.90;;;;;;;22.87;30.16;94850.38;6172922;28;102925;-57
2022/04/16 10:57:38;;;;;;;49.97;45.67;;;;;;;22.85;29.83;94847.22;6184516;28;103034;-58
2022/04/16 11:00:45;;;;;;;50.73;46.43;;;;;;;22.85;30.16;94844.53;6200082;28;103164;-58
2022/04/16 11:03:48;;;;;;;50.73;46.33;;;;;;;22.84;30.36;94834.97;6179150;28;102983;-57
2022/04/16 11:06:51;;;;;;;51.63;47.23;;;;;;;22.85;30.09;94850.69;6182634;28;103062;-58
2022/04/16 11:09:54;;;;;;;51.90;47.50;;;;;;;22.84;30.21;94834.97;6187986;28;103958;-56
2022/04/16 11:12:57;;;;;;;53.77;49.23;;;;;;;22.84;30.41;94834.97;6188781;28;104166;-57
2022/04/16 11:15:59;;;;;;;53.33;48.93;;;;;;;22.83;29.84;94838.75;6178053;28;103418;-57
2022/04/16 11:19:12;;;;;;;55.23;50.50;;;;;;;22.83;29.76;94830.75;6188112;28;103981;-57
2022/04/16 11:22:15;;;;;;;55.60;50.90;;;;;;;22.81;30.07;94835.59;6187811;28;103050;-57
2022/04/16 11:25:17;;;;;;;56.23;51.33;;;;;;;22.83;30.11;94828.06;6187048;28;102975;-57
2022/04/16 11:35:07;;;;;;;59.63;54.60;;;;;;;22.81;30.25;94819.59;6188340;28;103470;-58
2022/04/16 11:38:09;;;;;;;61.97;56.60;;;;;;;22.81;29.93;94811.59;6182289;28;104368;-56
2022/04/16 11:41:12;;;;;;;61.70;56.30;;;;;;;22.77;30.01;94808.78;6183725;28;103104;-57
2022/04/16 11:44:14;;;;;;;62.70;57.40;;;;;;;22.78;30.45;94807.69;6187991;28;104208;-58
2022/04/16 11:47:20;;;;;;;61.37;56.17;;;;;;;22.79;29.96;94808.47;6187649;28;103043;-57
2022/04/16 11:50:25;;;;;;;61.70;56.40;;;;;;;22.78;30.13;94809.56;6175951;28;103201;-57
2022/04/16 11:53:27;;;;;;;63.70;58.40;;;;;;;22.78;29.93;94796.22;6187346;28;107107;-58
2022/04/16 11:56:35;;;;;;;63.13;57.77;;;;;;;22.78;30.12;94790.88;6185526;28;103018;-57
2022/04/16 11:59:40;;;;;;;63.50;58.17;;;;;;;22.78;30.10;94785.56;6187949;28;103349;-58
2022/04/16 12:02:42;;;;;;;62.60;57.40;;;;;;;22.78;30.33;94783.66;6177019;28;103038;-56
2022/04/16 12:05:47;;;;;;;63.23;57.83;;;;;;;22.77;30.17;94778.66;6187464;28;103172;-55
2022/04/16 12:08:50;;;;;;;63.73;58.33;;;;;;;22.78;30.43;94785.56;6186735;28;103419;-56
2022/04/16 12:11:55;;;;;;;62.47;56.93;;;;;;;22.77;30.47;94782.09;6182478;28;103276;-57
2022/04/16 12:14:58;;;;;;;63.37;57.77;;;;;;;22.77;30.14;94773.31;6181064;28;103403;-56
2022/04/16 12:18:11;;;;;;;61.60;56.30;;;;;;;22.76;30.19;94767.19;6187216;28;103236;-56
2022/04/16 12:21:14;;;;;;;60.60;55.40;;;;;;;22.76;30.25;94769.88;6187507;28;104129;-56
2022/04/16 12:24:28;;;;;;;59.70;54.60;;;;;;;22.75;30.06;94765.63;6176734;28;103158;-56
2022/04/16 12:27:30;;;;;;;58.73;53.83;;;;;;;22.75;30.14;94765.63;6186142;28;102992;-58
2022/04/16 12:30:32;;;;;;;60.30;55.23;;;;;;;22.76;30.38;94756.53;6186802;28;102997;-56
2022/04/16 12:33:34;;;;;;;60.53;55.23;;;;;;;22.75;29.84;94756.84;6187137;28;103980;-56
2022/04/16 12:36:36;;;;;;;58.57;53.77;;;;;;;22.75;29.86;94756.84;6176732;28;104325;-55
2022/04/16 12:39:38;;;;;;;58.80;53.80;;;;;;;22.75;29.94;94756.84;6186550;28;104298;-56
2022/04/16 12:42:39;;;;;;;59.70;54.63;;;;;;;22.73;30.38;94751.84;6186636;28;103009;-56
2022/04/16 12:45:41;;;;;;;58.73;53.83;;;;;;;22.74;30.28;94750.72;6184900;28;103416;-56
2022/04/16 12:48:43;;;;;;;56.23;51.53;;;;;;;22.73;30.24;94743.81;6180124;28;103002;-57
2022/04/16 12:51:48;;;;;;;60.97;55.83;;;;;;;22.81;30.08;94747.56;6186650;28;104038;-58
2022/04/16 12:54:50;;;;;;;66.70;61.00;;;;;;;22.87;30.24;94738.31;6186455;28;103155;-57
2022/04/16 12:57:52;;;;;;;66.10;60.50;;;;;;;22.78;30.09;94734.88;6175209;28;103330;-57
2022/04/16 13:00:54;;;;;;;64.40;58.90;;;;;;;22.74;30.17;94737.41;6185587;28;104178;-56
2022/04/16 13:03:56;;;;;;;67.00;61.40;;;;;;;22.76;30.15;94734.41;6186401;28;103934;-56
2022/04/16 13:06:57;;;;;;;67.63;61.83;;;;;;;22.75;30.62;94732.84;6186023;28;103155;-61
2022/04/16 13:09:59;;;;;;;65.60;60.13;;;;;;;22.74;30.19;94732.06;6174641;28;103699;-56
2022/04/16 13:13:02;;;;;;;64.53;59.13;;;;;;;22.73;30.49;94727.03;6186267;28;103408;-56
2022/04/16 13:16:04;;;;;;;63.77;58.33;;;;;;;22.72;30.66;94726.25;6185768;28;104225;-55
2022/04/16 13:19:06;;;;;;;66.00;60.20;;;;;;;22.71;30.23;94716.69;6186890;28;103526;-56
2022/04/16 13:22:08;;;;;;;61.90;56.70;;;;;;;22.73;30.14;94722.50;6175406;28;104013;-55
2022/04/16 13:25:10;;;;;;;64.03;58.53;;;;;;;22.73;30.16;94721.72;6185770;28;103322;-56
2022/04/16 13:28:12;;;;;;;64.70;59.13;;;;;;;22.73;30.64;94721.72;6183815;28;103183;-55
2022/04/16 13:31:14;;;;;;;64.33;58.90;;;;;;;22.72;30.13;94715.59;6180843;28;103265;-56
2022/04/16 13:34:16;;;;;;;62.23;57.07;;;;;;;22.72;30.19;94710.25;6179893;28;102978;-56
2022/04/16 13:37:18;;;;;;;61.47;56.17;;;;;;;22.72;30.50;94709.47;6185488;28;103043;-55
2022/04/16 13:43:43;;;;;;;61.20;56.03;;;;;;;22.72;30.09;94704.13;6176416;28;104159;-54
2022/04/16 13:46:51;;;;;;;60.80;55.80;;;;;;;22.70;30.44;94702.56;6185407;28;103183;-56
2022/04/16 13:49:53;;;;;;;60.80;55.67;;;;;;;22.71;30.17;94698.03;6185677;28;104285;-56
2022/04/16 13:52:55;;;;;;;59.53;54.40;;;;;;;22.72;30.15;94704.13;6185274;28;102717;-56
2022/04/16 13:55:56;;;;;;;60.57;55.47;;;;;;;22.71;30.42;94700.69;6175279;28;104207;-55
2022/04/16 13:58:58;;;;;;;60.67;55.57;;;;;;;22.72;30.29;94696.13;6184600;28;103971;-56
2022/04/16 14:02:00;;;;;;;59.40;54.43;;;;;;;22.70;29.96;94689.22;6185221;28;104100;-55
2022/04/16 14:08:22;;;;;;;60.03;55.00;;;;;;;22.72;30.38;94688.13;6179415;28;102998;-55
2022/04/16 14:11:25;;;;;;;58.67;53.77;;;;;;;22.69;30.41;94685.00;6185425;28;102991;-55
2022/04/16 14:14:29;;;;;;;58.13;53.23;;;;;;;22.68;30.56;94687.97;6184497;28;104243;-55
2022/04/16 14:17:31;;;;;;;57.13;52.53;;;;;;;22.68;30.22;94688.78;6175067;28;104184;-56
2022/04/16 14:20:32;;;;;;;58.67;53.53;;;;;;;22.68;30.40;94683.44;6184589;28;103610;-55
2022/04/16 14:23:35;;;;;;;57.53;52.73;;;;;;;22.67;30.34;94686.41;6184655;28;104020;-55
2022/04/16 14:26:39;;;;;;;58.63;53.73;;;;;;;22.67;30.46;94681.84;6185092;28;103253;-56